sensor_id;sensor_type;location;lat;lon;timestamp;P1;durP1;ratioP1;P2;durP2;ratioP2
75700;SDS011;64321;48.796;44.740;2023-04-09T00:03:47;8.98;;;4.82;;
75700;SDS011;64321;48.796;44.740;2023-04-09T00:09:43;7.78;;;3.17;;
75700;SDS011;64321;48.796;44.740;2023-04-09T00:15:43;8.80;;;2.78;;
75700;SDS011;64321;48.796;44.740;2023-04-09T00:21:57;7.90;;;3.78;;
75700;SDS011;64321;48.796;44.740;2023-04-09T00:27:36;6.28;;;3.08;;
75700;SDS011;64321;48.796;44.740;2023-04-09T00:33:21;6.57;;;2.90;;
75700;SDS011;64321;48.796;44.740;2023-04-09T00:38:49;6.75;;;3.22;;
75700;SDS011;64321;48.796;44.740;2023-04-09T00:44:38;6.97;;;3.58;;
75700;SDS011;64321;48.796;44.740;2023-04-09T00:50:02;12.10;;;2.70;;
75700;SDS011;64321;48.796;44.740;2023-04-09T00:55:38;7.03;;;2.65;;
75700;SDS011;64321;48.796;44.740;2023-04-09T01:06:54;6.10;;;3.78;;
75700;SDS011;64321;48.796;44.740;2023-04-09T01:12:25;8.35;;;2.88;;
75700;SDS011;64321;48.796;44.740;2023-04-09T01:29:48;6.78;;;2.90;;
75700;SDS011;64321;48.796;44.740;2023-04-09T01:35:48;7.00;;;2.33;;
75700;SDS011;64321;48.796;44.740;2023-04-09T01:41:50;9.27;;;4.03;;
75700;SDS011;64321;48.796;44.740;2023-04-09T01:59:11;8.68;;;4.00;;
75700;SDS011;64321;48.796;44.740;2023-04-09T02:05:18;6.68;;;2.42;;
75700;SDS011;64321;48.796;44.740;2023-04-09T02:11:20;6.88;;;3.63;;
75700;SDS011;64321;48.796;44.740;2023-04-09T02:17:13;5.28;;;2.75;;
75700;SDS011;64321;48.796;44.740;2023-04-09T02:22:38;6.32;;;2.28;;
75700;SDS011;64321;48.796;44.740;2023-04-09T02:28:09;8.30;;;3.20;;
75700;SDS011;64321;48.796;44.740;2023-04-09T02:34:40;6.93;;;2.65;;
75700;SDS011;64321;48.796;44.740;2023-04-09T02:40:36;5.97;;;2.78;;
75700;SDS011;64321;48.796;44.740;2023-04-09T02:46:22;4.43;;;1.85;;
75700;SDS011;64321;48.796;44.740;2023-04-09T02:52:01;5.78;;;2.90;;
75700;SDS011;64321;48.796;44.740;2023-04-09T02:57:42;6.07;;;2.45;;
75700;SDS011;64321;48.796;44.740;2023-04-09T03:03:07;6.80;;;2.97;;
75700;SDS011;64321;48.796;44.740;2023-04-09T03:09:13;5.50;;;2.92;;
75700;SDS011;64321;48.796;44.740;2023-04-09T03:15:07;6.25;;;2.40;;
75700;SDS011;64321;48.796;44.740;2023-04-09T03:21:07;6.40;;;2.53;;
75700;SDS011;64321;48.796;44.740;2023-04-09T03:26:55;5.85;;;2.28;;
75700;SDS011;64321;48.796;44.740;2023-04-09T03:32:40;6.32;;;1.80;;
75700;SDS011;64321;48.796;44.740;2023-04-09T03:38:17;4.30;;;1.77;;
75700;SDS011;64321;48.796;44.740;2023-04-09T03:44:24;6.35;;;2.70;;
75700;SDS011;64321;48.796;44.740;2023-04-09T03:49:52;10.40;;;2.35;;
75700;SDS011;64321;48.796;44.740;2023-04-09T03:55:36;5.45;;;2.42;;
75700;SDS011;64321;48.796;44.740;2023-04-09T04:01:05;6.28;;;2.60;;
75700;SDS011;64321;48.796;44.740;2023-04-09T04:06:59;7.80;;;2.17;;
75700;SDS011;64321;48.796;44.740;2023-04-09T04:12:48;6.18;;;1.92;;
75700;SDS011;64321;48.796;44.740;2023-04-09T04:18:23;7.82;;;3.17;;
75700;SDS011;64321;48.796;44.740;2023-04-09T04:23:50;8.82;;;4.38;;
75700;SDS011;64321;48.796;44.740;2023-04-09T04:29:11;12.05;;;6.13;;
75700;SDS011;64321;48.796;44.740;2023-04-09T04:34:40;8.48;;;3.35;;
75700;SDS011;64321;48.796;44.740;2023-04-09T04:40:06;8.20;;;3.25;;
75700;SDS011;64321;48.796;44.740;2023-04-09T04:46:13;7.88;;;3.55;;
75700;SDS011;64321;48.796;44.740;2023-04-09T04:51:54;6.55;;;2.40;;
75700;SDS011;64321;48.796;44.740;2023-04-09T04:57:10;5.07;;;1.95;;
75700;SDS011;64321;48.796;44.740;2023-04-09T05:08:47;7.03;;;1.77;;
75700;SDS011;64321;48.796;44.740;2023-04-09T05:14:54;7.88;;;1.50;;
75700;SDS011;64321;48.796;44.740;2023-04-09T05:20:38;7.97;;;2.60;;
75700;SDS011;64321;48.796;44.740;2023-04-09T05:26:06;5.32;;;2.22;;
75700;SDS011;64321;48.796;44.740;2023-04-09T05:31:36;5.57;;;1.70;;
75700;SDS011;64321;48.796;44.740;2023-04-09T05:37:27;7.50;;;1.30;;
75700;SDS011;64321;48.796;44.740;2023-04-09T05:42:59;4.68;;;2.15;;
75700;SDS011;64321;48.796;44.740;2023-04-09T05:49:06;6.28;;;1.80;;
75700;SDS011;64321;48.796;44.740;2023-04-09T05:55:13;5.18;;;2.25;;
75700;SDS011;64321;48.796;44.740;2023-04-09T06:00:31;5.43;;;2.20;;
75700;SDS011;64321;48.796;44.740;2023-04-09T06:06:38;6.40;;;2.03;;
75700;SDS011;64321;48.796;44.740;2023-04-09T06:12:30;6.22;;;2.90;;
75700;SDS011;64321;48.796;44.740;2023-04-09T06:17:44;5.65;;;2.70;;
75700;SDS011;64321;48.796;44.740;2023-04-09T06:23:07;7.35;;;2.53;;
75700;SDS011;64321;48.796;44.740;2023-04-09T06:28:58;5.63;;;1.83;;
75700;SDS011;64321;48.796;44.740;2023-04-09T06:34:19;4.30;;;2.00;;
75700;SDS011;64321;48.796;44.740;2023-04-09T06:40:12;5.40;;;2.15;;
75700;SDS011;64321;48.796;44.740;2023-04-09T06:46:05;6.63;;;2.00;;
75700;SDS011;64321;48.796;44.740;2023-04-09T06:51:52;3.85;;;1.95;;
75700;SDS011;64321;48.796;44.740;2023-04-09T06:57:27;7.32;;;2.08;;
75700;SDS011;64321;48.796;44.740;2023-04-09T07:02:53;6.90;;;1.85;;
75700;SDS011;64321;48.796;44.740;2023-04-09T07:08:12;6.65;;;1.95;;
75700;SDS011;64321;48.796;44.740;2023-04-09T07:13:40;4.57;;;2.40;;
75700;SDS011;64321;48.796;44.740;2023-04-09T07:18:58;5.18;;;1.48;;
75700;SDS011;64321;48.796;44.740;2023-04-09T07:24:12;7.35;;;1.63;;
75700;SDS011;64321;48.796;44.740;2023-04-09T07:29:54;7.20;;;1.80;;
75700;SDS011;64321;48.796;44.740;2023-04-09T07:35:33;5.45;;;2.38;;
75700;SDS011;64321;48.796;44.740;2023-04-09T07:41:03;8.25;;;1.77;;
75700;SDS011;64321;48.796;44.740;2023-04-09T07:46:22;4.70;;;2.13;;
75700;SDS011;64321;48.796;44.740;2023-04-09T07:52:20;5.85;;;1.75;;
75700;SDS011;64321;48.796;44.740;2023-04-09T07:57:36;8.73;;;2.25;;
75700;SDS011;64321;48.796;44.740;2023-04-09T08:02:55;6.75;;;2.20;;
75700;SDS011;64321;48.796;44.740;2023-04-09T08:08:37;8.25;;;3.10;;
75700;SDS011;64321;48.796;44.740;2023-04-09T08:13:41;6.18;;;2.45;;
75700;SDS011;64321;48.796;44.740;2023-04-09T08:18:43;5.38;;;1.67;;
75700;SDS011;64321;48.796;44.740;2023-04-09T08:23:45;5.07;;;1.52;;
75700;SDS011;64321;48.796;44.740;2023-04-09T08:28:47;4.82;;;1.63;;
75700;SDS011;64321;48.796;44.740;2023-04-09T08:33:50;5.93;;;2.30;;
75700;SDS011;64321;48.796;44.740;2023-04-09T08:38:54;4.28;;;2.60;;
75700;SDS011;64321;48.796;44.740;2023-04-09T08:43:57;6.53;;;2.33;;
75700;SDS011;64321;48.796;44.740;2023-04-09T08:49:00;5.75;;;2.70;;
75700;SDS011;64321;48.796;44.740;2023-04-09T08:54:02;3.78;;;1.70;;
75700;SDS011;64321;48.796;44.740;2023-04-09T08:59:06;5.03;;;1.45;;
75700;SDS011;64321;48.796;44.740;2023-04-09T09:04:08;8.15;;;3.25;;
75700;SDS011;64321;48.796;44.740;2023-04-09T09:09:12;6.95;;;2.83;;
75700;SDS011;64321;48.796;44.740;2023-04-09T09:14:15;6.68;;;2.03;;
75700;SDS011;64321;48.796;44.740;2023-04-09T09:24:26;6.00;;;2.03;;
75700;SDS011;64321;48.796;44.740;2023-04-09T09:29:28;5.25;;;1.85;;
75700;SDS011;64321;48.796;44.740;2023-04-09T09:34:30;5.95;;;3.35;;
75700;SDS011;64321;48.796;44.740;2023-04-09T09:39:41;6.03;;;2.88;;
75700;SDS011;64321;48.796;44.740;2023-04-09T09:44:44;6.32;;;1.80;;
75700;SDS011;64321;48.796;44.740;2023-04-09T09:49:49;5.22;;;2.40;;
75700;SDS011;64321;48.796;44.740;2023-04-09T09:54:52;8.00;;;2.13;;
75700;SDS011;64321;48.796;44.740;2023-04-09T10:00:00;5.07;;;1.73;;
75700;SDS011;64321;48.796;44.740;2023-04-09T10:05:09;6.22;;;2.15;;
75700;SDS011;64321;48.796;44.740;2023-04-09T10:10:12;5.60;;;2.05;;
75700;SDS011;64321;48.796;44.740;2023-04-09T10:15:14;6.40;;;2.80;;
75700;SDS011;64321;48.796;44.740;2023-04-09T10:20:18;8.73;;;2.90;;
75700;SDS011;64321;48.796;44.740;2023-04-09T10:25:23;10.05;;;2.13;;
75700;SDS011;64321;48.796;44.740;2023-04-09T10:30:34;4.82;;;1.73;;
75700;SDS011;64321;48.796;44.740;2023-04-09T10:35:36;8.02;;;3.03;;
75700;SDS011;64321;48.796;44.740;2023-04-09T10:40:47;5.55;;;2.28;;
75700;SDS011;64321;48.796;44.740;2023-04-09T10:45:51;5.10;;;2.65;;
75700;SDS011;64321;48.796;44.740;2023-04-09T10:50:55;4.72;;;1.95;;
75700;SDS011;64321;48.796;44.740;2023-04-09T10:55:57;5.30;;;2.03;;
75700;SDS011;64321;48.796;44.740;2023-04-09T11:00:59;8.20;;;2.45;;
75700;SDS011;64321;48.796;44.740;2023-04-09T11:06:03;8.38;;;2.85;;
75700;SDS011;64321;48.796;44.740;2023-04-09T11:11:10;9.10;;;2.90;;
75700;SDS011;64321;48.796;44.740;2023-04-09T11:16:13;8.52;;;2.42;;
75700;SDS011;64321;48.796;44.740;2023-04-09T11:21:26;7.75;;;2.47;;
75700;SDS011;64321;48.796;44.740;2023-04-09T11:26:35;7.25;;;2.20;;
75700;SDS011;64321;48.796;44.740;2023-04-09T11:31:38;5.07;;;2.15;;
75700;SDS011;64321;48.796;44.740;2023-04-09T11:36:40;5.40;;;2.35;;
75700;SDS011;64321;48.796;44.740;2023-04-09T11:41:43;7.85;;;2.05;;
75700;SDS011;64321;48.796;44.740;2023-04-09T11:46:45;4.90;;;1.73;;
75700;SDS011;64321;48.796;44.740;2023-04-09T11:51:48;6.25;;;2.22;;
75700;SDS011;64321;48.796;44.740;2023-04-09T11:56:50;9.45;;;2.05;;
75700;SDS011;64321;48.796;44.740;2023-04-09T12:01:57;6.78;;;3.22;;
75700;SDS011;64321;48.796;44.740;2023-04-09T12:06:59;5.43;;;2.33;;
75700;SDS011;64321;48.796;44.740;2023-04-09T12:12:02;7.75;;;2.38;;
75700;SDS011;64321;48.796;44.740;2023-04-09T12:17:04;7.88;;;2.40;;
75700;SDS011;64321;48.796;44.740;2023-04-09T12:22:09;10.23;;;2.20;;
75700;SDS011;64321;48.796;44.740;2023-04-09T12:27:11;7.72;;;3.45;;
75700;SDS011;64321;48.796;44.740;2023-04-09T12:32:14;9.40;;;2.50;;
75700;SDS011;64321;48.796;44.740;2023-04-09T12:37:16;5.30;;;2.40;;
75700;SDS011;64321;48.796;44.740;2023-04-09T12:42:18;7.45;;;3.50;;
75700;SDS011;64321;48.796;44.740;2023-04-09T12:47:21;8.88;;;2.85;;
75700;SDS011;64321;48.796;44.740;2023-04-09T12:52:44;8.00;;;2.78;;
75700;SDS011;64321;48.796;44.740;2023-04-09T12:57:48;10.85;;;4.68;;
75700;SDS011;64321;48.796;44.740;2023-04-09T13:02:50;7.05;;;3.20;;
75700;SDS011;64321;48.796;44.740;2023-04-09T13:07:53;6.85;;;2.10;;
75700;SDS011;64321;48.796;44.740;2023-04-09T13:13:16;5.93;;;2.25;;
75700;SDS011;64321;48.796;44.740;2023-04-09T13:18:38;6.78;;;2.40;;
75700;SDS011;64321;48.796;44.740;2023-04-09T13:23:41;5.50;;;2.78;;
75700;SDS011;64321;48.796;44.740;2023-04-09T13:28:46;5.53;;;2.55;;
75700;SDS011;64321;48.796;44.740;2023-04-09T13:33:48;6.88;;;2.53;;
75700;SDS011;64321;48.796;44.740;2023-04-09T13:38:53;6.40;;;4.05;;
75700;SDS011;64321;48.796;44.740;2023-04-09T13:44:16;11.25;;;4.13;;
75700;SDS011;64321;48.796;44.740;2023-04-09T13:49:37;6.93;;;3.22;;
75700;SDS011;64321;48.796;44.740;2023-04-09T13:54:57;10.00;;;3.03;;
75700;SDS011;64321;48.796;44.740;2023-04-09T14:00:18;8.90;;;3.75;;
75700;SDS011;64321;48.796;44.740;2023-04-09T14:05:21;13.45;;;4.82;;
75700;SDS011;64321;48.796;44.740;2023-04-09T14:10:25;11.48;;;4.95;;
75700;SDS011;64321;48.796;44.740;2023-04-09T14:15:28;8.43;;;4.13;;
75700;SDS011;64321;48.796;44.740;2023-04-09T14:20:30;9.90;;;4.20;;
75700;SDS011;64321;48.796;44.740;2023-04-09T14:25:34;9.15;;;3.90;;
75700;SDS011;64321;48.796;44.740;2023-04-09T14:30:36;9.48;;;4.57;;
75700;SDS011;64321;48.796;44.740;2023-04-09T14:35:39;11.70;;;3.85;;
75700;SDS011;64321;48.796;44.740;2023-04-09T14:40:41;12.55;;;4.13;;
75700;SDS011;64321;48.796;44.740;2023-04-09T14:45:44;9.88;;;3.40;;
75700;SDS011;64321;48.796;44.740;2023-04-09T14:50:46;11.77;;;4.78;;
75700;SDS011;64321;48.796;44.740;2023-04-09T14:55:49;10.80;;;3.42;;
75700;SDS011;64321;48.796;44.740;2023-04-09T15:00:51;7.07;;;3.53;;
75700;SDS011;64321;48.796;44.740;2023-04-09T15:05:53;10.43;;;3.38;;
75700;SDS011;64321;48.796;44.740;2023-04-09T15:10:56;10.73;;;3.35;;
75700;SDS011;64321;48.796;44.740;2023-04-09T15:15:58;12.98;;;3.58;;
75700;SDS011;64321;48.796;44.740;2023-04-09T15:21:00;9.25;;;3.35;;
75700;SDS011;64321;48.796;44.740;2023-04-09T15:26:03;9.57;;;3.25;;
75700;SDS011;64321;48.796;44.740;2023-04-09T15:31:06;8.52;;;2.88;;
75700;SDS011;64321;48.796;44.740;2023-04-09T15:36:08;6.10;;;3.00;;
75700;SDS011;64321;48.796;44.740;2023-04-09T15:41:11;8.90;;;3.97;;
75700;SDS011;64321;48.796;44.740;2023-04-09T15:46:13;9.10;;;3.30;;
75700;SDS011;64321;48.796;44.740;2023-04-09T15:51:17;10.07;;;3.60;;
75700;SDS011;64321;48.796;44.740;2023-04-09T15:56:19;11.93;;;4.03;;
75700;SDS011;64321;48.796;44.740;2023-04-09T16:01:21;12.18;;;4.63;;
75700;SDS011;64321;48.796;44.740;2023-04-09T16:06:24;14.05;;;5.50;;
75700;SDS011;64321;48.796;44.740;2023-04-09T16:11:26;23.58;;;7.78;;
75700;SDS011;64321;48.796;44.740;2023-04-09T16:16:28;30.23;;;9.20;;
75700;SDS011;64321;48.796;44.740;2023-04-09T16:21:31;26.92;;;11.43;;
75700;SDS011;64321;48.796;44.740;2023-04-09T16:26:34;23.35;;;7.93;;
75700;SDS011;64321;48.796;44.740;2023-04-09T16:31:37;23.98;;;8.85;;
75700;SDS011;64321;48.796;44.740;2023-04-09T16:36:40;24.30;;;11.18;;
75700;SDS011;64321;48.796;44.740;2023-04-09T16:41:42;37.75;;;13.27;;
75700;SDS011;64321;48.796;44.740;2023-04-09T16:46:45;37.33;;;13.60;;
75700;SDS011;64321;48.796;44.740;2023-04-09T16:51:49;47.58;;;14.43;;
75700;SDS011;64321;48.796;44.740;2023-04-09T16:56:52;36.03;;;11.35;;
75700;SDS011;64321;48.796;44.740;2023-04-09T17:01:55;37.83;;;12.45;;
75700;SDS011;64321;48.796;44.740;2023-04-09T17:06:58;32.42;;;11.95;;
75700;SDS011;64321;48.796;44.740;2023-04-09T17:12:01;32.45;;;12.15;;
75700;SDS011;64321;48.796;44.740;2023-04-09T17:17:04;22.90;;;9.73;;
75700;SDS011;64321;48.796;44.740;2023-04-09T17:22:08;28.52;;;10.27;;
75700;SDS011;64321;48.796;44.740;2023-04-09T17:27:12;28.13;;;12.27;;
75700;SDS011;64321;48.796;44.740;2023-04-09T17:32:14;28.23;;;11.15;;
75700;SDS011;64321;48.796;44.740;2023-04-09T17:37:17;30.73;;;11.48;;
75700;SDS011;64321;48.796;44.740;2023-04-09T17:42:21;37.85;;;18.27;;
75700;SDS011;64321;48.796;44.740;2023-04-09T17:47:29;41.05;;;16.88;;
75700;SDS011;64321;48.796;44.740;2023-04-09T17:52:38;45.63;;;17.67;;
75700;SDS011;64321;48.796;44.740;2023-04-09T17:57:44;50.75;;;16.50;;
75700;SDS011;64321;48.796;44.740;2023-04-09T18:02:50;43.95;;;18.45;;
75700;SDS011;64321;48.796;44.740;2023-04-09T18:08:01;45.35;;;18.13;;
75700;SDS011;64321;48.796;44.740;2023-04-09T18:13:10;41.75;;;19.30;;
75700;SDS011;64321;48.796;44.740;2023-04-09T18:18:43;47.10;;;21.15;;
75700;SDS011;64321;48.796;44.740;2023-04-09T18:24:00;43.13;;;15.00;;
75700;SDS011;64321;48.796;44.740;2023-04-09T18:29:16;35.95;;;14.63;;
75700;SDS011;64321;48.796;44.740;2023-04-09T18:35:22;34.55;;;15.60;;
75700;SDS011;64321;48.796;44.740;2023-04-09T18:40:50;30.40;;;12.80;;
75700;SDS011;64321;48.796;44.740;2023-04-09T18:46:23;27.10;;;12.65;;
75700;SDS011;64321;48.796;44.740;2023-04-09T18:52:39;27.13;;;11.73;;
75700;SDS011;64321;48.796;44.740;2023-04-09T19:04:45;32.92;;;11.65;;
75700;SDS011;64321;48.796;44.740;2023-04-09T19:10:11;24.90;;;8.45;;
75700;SDS011;64321;48.796;44.740;2023-04-09T19:15:55;18.40;;;8.50;;
75700;SDS011;64321;48.796;44.740;2023-04-09T19:21:24;22.65;;;9.43;;
75700;SDS011;64321;48.796;44.740;2023-04-09T19:26:57;19.80;;;7.72;;
75700;SDS011;64321;48.796;44.740;2023-04-09T19:32:42;19.05;;;8.13;;
75700;SDS011;64321;48.796;44.740;2023-04-09T19:38:14;18.50;;;7.40;;
75700;SDS011;64321;48.796;44.740;2023-04-09T19:43:34;23.70;;;8.55;;
75700;SDS011;64321;48.796;44.740;2023-04-09T19:49:02;20.85;;;7.88;;
75700;SDS011;64321;48.796;44.740;2023-04-09T19:55:08;22.85;;;8.75;;
75700;SDS011;64321;48.796;44.740;2023-04-09T20:01:03;22.58;;;8.55;;
75700;SDS011;64321;48.796;44.740;2023-04-09T20:06:54;17.08;;;7.68;;
75700;SDS011;64321;48.796;44.740;2023-04-09T20:12:33;22.58;;;8.93;;
75700;SDS011;64321;48.796;44.740;2023-04-09T20:18:18;23.52;;;9.93;;
75700;SDS011;64321;48.796;44.740;2023-04-09T20:24:32;18.35;;;9.40;;
75700;SDS011;64321;48.796;44.740;2023-04-09T20:30:09;20.40;;;8.73;;
75700;SDS011;64321;48.796;44.740;2023-04-09T20:36:13;16.63;;;7.82;;
75700;SDS011;64321;48.796;44.740;2023-04-09T20:41:48;18.05;;;7.07;;
75700;SDS011;64321;48.796;44.740;2023-04-09T20:47:36;15.00;;;6.45;;
75700;SDS011;64321;48.796;44.740;2023-04-09T20:53:21;19.88;;;6.30;;
75700;SDS011;64321;48.796;44.740;2023-04-09T20:59:20;13.10;;;6.43;;
75700;SDS011;64321;48.796;44.740;2023-04-09T21:05:37;17.35;;;8.10;;
75700;SDS011;64321;48.796;44.740;2023-04-09T21:11:33;17.02;;;7.35;;
75700;SDS011;64321;48.796;44.740;2023-04-09T21:17:41;16.05;;;6.63;;
75700;SDS011;64321;48.796;44.740;2023-04-09T21:23:03;15.80;;;6.93;;
75700;SDS011;64321;48.796;44.740;2023-04-09T21:34:47;15.45;;;8.07;;
75700;SDS011;64321;48.796;44.740;2023-04-09T21:45:52;14.98;;;6.68;;
75700;SDS011;64321;48.796;44.740;2023-04-09T21:57:39;12.50;;;5.15;;
75700;SDS011;64321;48.796;44.740;2023-04-09T22:03:11;8.60;;;5.18;;
75700;SDS011;64321;48.796;44.740;2023-04-09T22:08:56;10.43;;;4.70;;
75700;SDS011;64321;48.796;44.740;2023-04-09T22:21:14;9.00;;;2.97;;
75700;SDS011;64321;48.796;44.740;2023-04-09T22:26:31;8.57;;;3.50;;
75700;SDS011;64321;48.796;44.740;2023-04-09T22:38:15;6.75;;;3.13;;
75700;SDS011;64321;48.796;44.740;2023-04-09T22:44:09;9.65;;;3.22;;
75700;SDS011;64321;48.796;44.740;2023-04-09T22:49:53;7.50;;;3.17;;
75700;SDS011;64321;48.796;44.740;2023-04-09T22:55:35;6.63;;;2.83;;
75700;SDS011;64321;48.796;44.740;2023-04-09T23:00:57;5.78;;;3.00;;
75700;SDS011;64321;48.796;44.740;2023-04-09T23:06:45;5.38;;;2.88;;
75700;SDS011;64321;48.796;44.740;2023-04-09T23:12:14;7.75;;;3.28;;
75700;SDS011;64321;48.796;44.740;2023-04-09T23:18:07;8.82;;;3.78;;
75700;SDS011;64321;48.796;44.740;2023-04-09T23:23:38;7.85;;;3.20;;
75700;SDS011;64321;48.796;44.740;2023-04-09T23:29:27;8.15;;;2.88;;
75700;SDS011;64321;48.796;44.740;2023-04-09T23:35:16;10.40;;;3.63;;
75700;SDS011;64321;48.796;44.740;2023-04-09T23:40:41;8.25;;;2.83;;
75700;SDS011;64321;48.796;44.740;2023-04-09T23:51:47;9.75;;;3.97;;
75700;SDS011;64321;48.796;44.740;2023-04-09T23:57:28;7.10;;;3.05;;
